Time;durP1;ratioP1;P1;durP2;ratioP2;P2;SDS_P1;SDS_P2;PMS_P1;PMS_P2;Temp;Humidity;BMP_temperature;BMP_pressure;BME280_temperature;BME280_humidity;BME280_pressure;Samples;Min_cycle;Max_cycle;Signal;HPM_P1;HPM_P2
2023/01/26 00:01:29;;;;;;;;;;;;;;;;;;5039940;28;20350;-96
2023/01/26 00:04:15;;;;;;;;;;;;;;;;;;5034855;28;19921;-90
2023/01/26 00:07:02;;;;;;;;;;;;;;;;;;5028767;28;19929;-92
2023/01/26 00:09:51;;;;;;;;;;;;;;;;;;5023993;28;19913;-94
2023/01/26 00:12:37;;;;;;;;;;;;;;;;;;5022071;28;20027;-92
2023/01/26 00:15:27;;;;;;;;;;;;;;;;;;5035620;28;19921;-96
2023/01/26 00:18:13;;;;;;;;;;;;;;;;;;5043735;28;19921;-93
2023/01/26 00:21:00;;;;;;;;;;;;;;;;;;5034815;28;19918;-94
2023/01/26 00:23:46;;;;;;;;;;;;;;;;;;5001666;28;19914;-96
2023/01/26 00:26:33;;;;;;;;;;;;;;;;;;5041774;28;19916;-96
2023/01/26 00:29:19;;;;;;;;;;;;;;;;;;5041830;28;20454;-96
2023/01/26 00:32:06;;;;;;;;;;;;;;;;;;5047683;28;19928;-96
2023/01/26 00:34:52;;;;;;;;;;;;;;;;;;5040775;28;19919;-96
2023/01/26 00:37:39;;;;;;;;;;;;;;;;;;5045472;28;19921;-96
2023/01/26 00:40:25;;;;;;;;;;;;;;;;;;5033101;28;19917;-93
2023/01/26 00:43:12;;;;;;;;;;;;;;;;;;5041218;28;19908;-94
2023/01/26 00:45:58;;;;;;;;;;;;;;;;;;5016006;28;19914;-94
2023/01/26 00:48:45;;;;;;;;;;;;;;;;;;5022612;28;19939;-96
2023/01/26 00:51:31;;;;;;;;;;;;;;;;;;5011875;28;19915;-96
2023/01/26 00:54:18;;;;;;;;;;;;;;;;;;5032393;28;19913;-96
2023/01/26 00:57:04;;;;;;;;;;;;;;;;;;5036159;28;20476;-96
2023/01/26 00:59:51;;;;;;;;;;;;;;;;;;5041679;23;19902;-94
2023/01/26 01:02:40;;;;;;;;;;;;;;;;;;5031536;28;19917;-96
2023/01/26 01:05:26;;;;;;;;;;;;;;;;;;5048860;28;19902;-94
2023/01/26 01:08:13;;;;;;;;;;;;;;;;;;5057048;28;19927;-96
2023/01/26 01:10:59;;;;;;;;;;;;;;;;;;5046588;28;19901;-92
2023/01/26 01:13:46;;;;;;;;;;;;;;;;;;5060049;28;19901;-96
2023/01/26 01:16:32;;;;;;;;;;;;;;;;;;5059255;28;19931;-96
2023/01/26 01:19:19;;;;;;;;;;;;;;;;;;5040325;28;19927;-96
2023/01/26 01:22:05;;;;;;;;;;;;;;;;;;5053429;28;19921;-96
2023/01/26 01:24:52;;;;;;;;;;;;;;;;;;5057546;28;19893;-96
2023/01/26 01:27:38;;;;;;;;;;;;;;;;;;5042578;28;19909;-95
2023/01/26 01:30:25;;;;;;;;;;;;;;;;;;5046083;28;19920;-96
2023/01/26 01:33:11;;;;;;;;;;;;;;;;;;5044956;28;19913;-95
2023/01/26 01:35:58;;;;;;;;;;;;;;;;;;5048127;28;19921;-96
2023/01/26 01:38:44;;;;;;;;;;;;;;;;;;5045349;28;19904;-96
2023/01/26 01:44:06;;;;;;;;;;;;;;;;;;5074187;23;19928;-96
2023/01/26 01:46:55;;;;;;;;;;;;;;;;;;5039671;28;19910;-96
2023/01/26 01:49:44;;;;;;;;;;;;;;;;;;5036045;28;19919;-96
2023/01/26 01:52:31;;;;;;;;;;;;;;;;;;5010620;28;19924;-93
2023/01/26 01:55:18;;;;;;;;;;;;;;;;;;5014040;28;19909;-94
2023/01/26 01:58:04;;;;;;;;;;;;;;;;;;5015255;28;19974;-93
2023/01/26 02:00:51;;;;;;;;;;;;;;;;;;5011142;28;19923;-94
2023/01/26 02:03:37;;;;;;;;;;;;;;;;;;5015439;28;20377;-94
2023/01/26 02:06:23;;;;;;;;;;;;;;;;;;5004120;28;19916;-91
2023/01/26 02:10:17;;;;;;;;;;;;;;;;;;5014055;28;20004;-94
2023/01/26 02:12:19;;;;;;;;;;;;;;;;;;5011482;28;20032;-95
2023/01/26 02:15:06;;;;;;;;;;;;;;;;;;5006745;28;19913;-95
2023/01/26 02:17:52;;;;;;;;;;;;;;;;;;5008720;28;19925;-93
2023/01/26 02:20:39;;;;;;;;;;;;;;;;;;5011208;28;19910;-93
2023/01/26 02:23:25;;;;;;;;;;;;;;;;;;5015427;28;20615;-94
2023/01/26 02:26:12;;;;;;;;;;;;;;;;;;5014185;28;19913;-95
2023/01/26 02:28:58;;;;;;;;;;;;;;;;;;5015590;28;19917;-96
2023/01/26 02:31:45;;;;;;;;;;;;;;;;;;5013176;28;19909;-90
2023/01/26 02:34:31;;;;;;;;;;;;;;;;;;5031218;28;19927;-95
2023/01/26 02:37:20;;;;;;;;;;;;;;;;;;5028746;28;19910;-87
2023/01/26 02:40:07;;;;;;;;;;;;;;;;;;5039654;28;19923;-82
2023/01/26 02:50:50;;;;;;;;;;;;;;;;;;5312129;23;19932;-96
2023/01/26 02:53:36;;;;;;;;;;;;;;;;;;5034242;28;19898;-96
2023/01/26 02:56:25;;;;;;;;;;;;;;;;;;5048602;28;19913;-96
2023/01/26 02:59:12;;;;;;;;;;;;;;;;;;5031067;28;20379;-96
2023/01/26 03:01:58;;;;;;;;;;;;;;;;;;5019403;28;19937;-88
2023/01/26 03:04:45;;;;;;;;;;;;;;;;;;5029631;28;19917;-91
2023/01/26 03:07:35;;;;;;;;;;;;;;;;;;5031819;28;19912;-94
2023/01/26 03:10:25;;;;;;;;;;;;;;;;;;5025211;28;19924;-96
2023/01/26 03:13:12;;;;;;;;;;;;;;;;;;5035000;28;19909;-96
2023/01/26 03:16:05;;;;;;;;;;;;;;;;;;5033465;28;20008;-95
2023/01/26 03:28:04;;;;;;;;;;;;;;;;;;5017251;28;19916;-96
2023/01/26 03:30:50;;;;;;;;;;;;;;;;;;5009821;28;19909;-95
2023/01/26 03:36:27;;;;;;;;;;;;;;;;;;5003530;28;20378;-94
2023/01/26 03:57:46;;;;;;;;;;;;;;;;;;5039596;28;19933;-96
2023/01/26 04:00:32;;;;;;;;;;;;;;;;;;5010553;28;19913;-96
2023/01/26 04:09:30;;;;;;;;;;;;;;;;;;5040828;28;19928;-96
2023/01/26 04:12:17;;;;;;;;;;;;;;;;;;5012385;28;19894;-96
2023/01/26 04:21:32;;;;;;;;;;;;;;;;;;5032335;28;19955;-95
2023/01/26 04:24:21;;;;;;;;;;;;;;;;;;5033418;28;19909;-96
2023/01/26 04:27:07;;;;;;;;;;;;;;;;;;5014645;28;19910;-96
2023/01/26 04:29:54;;;;;;;;;;;;;;;;;;5013123;28;19910;-95
2023/01/26 04:32:40;;;;;;;;;;;;;;;;;;5017490;28;19936;-96
2023/01/26 04:35:27;;;;;;;;;;;;;;;;;;5020233;28;19913;-96
2023/01/26 04:38:13;;;;;;;;;;;;;;;;;;5020479;28;19922;-96
2023/01/26 04:40:59;;;;;;;;;;;;;;;;;;5010938;28;19921;-95
2023/01/26 04:43:46;;;;;;;;;;;;;;;;;;5026037;28;19914;-96
2023/01/26 04:46:32;;;;;;;;;;;;;;;;;;5012140;28;19910;-95
2023/01/26 04:49:19;;;;;;;;;;;;;;;;;;5018594;28;19920;-94
2023/01/26 04:52:09;;;;;;;;;;;;;;;;;;5024487;28;19972;-90
2023/01/26 04:54:55;;;;;;;;;;;;;;;;;;5041621;28;19906;-96
2023/01/26 04:57:41;;;;;;;;;;;;;;;;;;5040906;28;19916;-88
2023/01/26 05:00:28;;;;;;;;;;;;;;;;;;5055705;28;19908;-91
2023/01/26 05:03:14;;;;;;;;;;;;;;;;;;5014969;28;19913;-94
2023/01/26 05:06:01;;;;;;;;;;;;;;;;;;5003179;28;19920;-94
2023/01/26 05:08:47;;;;;;;;;;;;;;;;;;5006661;28;19917;-94
2023/01/26 05:11:34;;;;;;;;;;;;;;;;;;5007217;28;19913;-93
2023/01/26 05:14:20;;;;;;;;;;;;;;;;;;5009262;28;20399;-96
2023/01/26 05:17:10;;;;;;;;;;;;;;;;;;5019339;28;20305;-94
2023/01/26 05:19:59;;;;;;;;;;;;;;;;;;5009646;28;20385;-93
2023/01/26 05:22:46;;;;;;;;;;;;;;;;;;5004530;28;19923;-94
2023/01/26 05:25:32;;;;;;;;;;;;;;;;;;5009267;28;19916;-95
2023/01/26 05:28:19;;;;;;;;;;;;;;;;;;5010103;28;19910;-95
2023/01/26 05:31:05;;;;;;;;;;;;;;;;;;5016830;28;20404;-96
2023/01/26 05:33:52;;;;;;;;;;;;;;;;;;4999895;28;19920;-89
2023/01/26 05:36:38;;;;;;;;;;;;;;;;;;5006086;28;20383;-92
2023/01/26 05:39:24;;;;;;;;;;;;;;;;;;5006518;28;19914;-90
2023/01/26 05:42:11;;;;;;;;;;;;;;;;;;5014827;28;19909;-91
2023/01/26 05:44:57;;;;;;;;;;;;;;;;;;5008309;28;19913;-95
2023/01/26 05:47:44;;;;;;;;;;;;;;;;;;5014827;28;19914;-94
2023/01/26 05:50:30;;;;;;;;;;;;;;;;;;5002036;28;19925;-91
2023/01/26 05:53:18;;;;;;;;;;;;;;;;;;5007911;28;19909;-90
2023/01/26 05:56:04;;;;;;;;;;;;;;;;;;5005797;28;20377;-91
2023/01/26 05:58:51;;;;;;;;;;;;;;;;;;5001118;28;19925;-90
2023/01/26 06:01:38;;;;;;;;;;;;;;;;;;5005224;28;19910;-88
2023/01/26 06:04:25;;;;;;;;;;;;;;;;;;5002507;28;19924;-90
2023/01/26 06:07:14;;;;;;;;;;;;;;;;;;5004208;28;19917;-89
2023/01/26 06:10:00;;;;;;;;;;;;;;;;;;5006605;28;20370;-90
2023/01/26 06:12:47;;;;;;;;;;;;;;;;;;4997474;28;19920;-89
2023/01/26 06:15:33;;;;;;;;;;;;;;;;;;5003621;28;19917;-88
2023/01/26 06:18:20;;;;;;;;;;;;;;;;;;5011383;28;19937;-85
2023/01/26 06:21:06;;;;;;;;;;;;;;;;;;4995171;28;19918;-76
2023/01/26 06:23:55;;;;;;;;;;;;;;;;;;5004386;28;19925;-77
2023/01/26 06:26:42;;;;;;;;;;;;;;;;;;5006326;28;19936;-77
2023/01/26 06:29:28;;;;;;;;;;;;;;;;;;5002151;28;20381;-76
2023/01/26 06:32:15;;;;;;;;;;;;;;;;;;4998650;28;19917;-77
2023/01/26 06:35:02;;;;;;;;;;;;;;;;;;5000545;28;20332;-76
2023/01/26 06:37:49;;;;;;;;;;;;;;;;;;5004916;28;19929;-77
2023/01/26 06:40:35;;;;;;;;;;;;;;;;;;4998612;28;19928;-77
2023/01/26 06:43:22;;;;;;;;;;;;;;;;;;5000074;28;19920;-77
2023/01/26 06:46:08;;;;;;;;;;;;;;;;;;5002715;28;19914;-78
2023/01/26 06:48:55;;;;;;;;;;;;;;;;;;4995197;28;19921;-77
2023/01/26 06:51:41;;;;;;;;;;;;;;;;;;4994162;28;19922;-77
2023/01/26 06:54:27;;;;;;;;;;;;;;;;;;4998126;28;20456;-77
2023/01/26 06:57:14;;;;;;;;;;;;;;;;;;4994820;28;19929;-77
2023/01/26 07:00:00;;;;;;;;;;;;;;;;;;4998336;28;19924;-77
2023/01/26 07:02:47;;;;;;;;;;;;;;;;;;4991420;28;19925;-76
2023/01/26 07:05:33;;;;;;;;;;;;;;;;;;5003865;28;19914;-77
2023/01/26 07:08:20;;;;;;;;;;;;;;;;;;5003240;28;19918;-76
2023/01/26 07:11:06;;;;;;;;;;;;;;;;;;5004886;28;19919;-76
2023/01/26 07:13:53;;;;;;;;;;;;;;;;;;4996792;28;19944;-77
2023/01/26 07:16:39;;;;;;;;;;;;;;;;;;5012103;28;20452;-77
2023/01/26 07:19:28;;;;;;;;;;;;;;;;;;4992694;28;19913;-76
2023/01/26 07:22:15;;;;;;;;;;;;;;;;;;5003334;28;20324;-78
2023/01/26 07:25:01;;;;;;;;;;;;;;;;;;5000198;28;19910;-77
2023/01/26 07:27:48;;;;;;;;;;;;;;;;;;5004140;28;19924;-77
2023/01/26 07:30:34;;;;;;;;;;;;;;;;;;5006030;28;19914;-77
2023/01/26 07:33:21;;;;;;;;;;;;;;;;;;5010206;28;19909;-76
2023/01/26 07:36:07;;;;;;;;;;;;;;;;;;4996869;28;20564;-76
2023/01/26 07:38:54;;;;;;;;;;;;;;;;;;5004484;28;20018;-76
2023/01/26 07:41:40;;;;;;;;;;;;;;;;;;5001945;28;20039;-76
2023/01/26 07:44:26;;;;;;;;;;;;;;;;;;5014097;28;20418;-77
2023/01/26 07:47:16;;;;;;;;;;;;;;;;;;5013319;28;19921;-76
2023/01/26 07:50:02;;;;;;;;;;;;;;;;;;4992053;28;19945;-76
2023/01/26 07:52:51;;;;;;;;;;;;;;;;;;4991830;28;19920;-76
2023/01/26 07:55:37;;;;;;;;;;;;;;;;;;4999748;28;20377;-76
2023/01/26 07:58:24;;;;;;;;;;;;;;;;;;4996348;28;19917;-76
2023/01/26 08:01:10;;;;;;;;;;;;;;;;;;5009441;28;19943;-77
2023/01/26 08:03:57;;;;;;;;;;;;;;;;;;5005578;28;19937;-76
2023/01/26 08:06:43;;;;;;;;;;;;;;;;;;4999128;28;20439;-77
2023/01/26 08:09:30;;;;;;;;;;;;;;;;;;5006188;28;20671;-76
2023/01/26 08:12:16;;;;;;;;;;;;;;;;;;4988684;28;19925;-76
2023/01/26 08:15:03;;;;;;;;;;;;;;;;;;4992183;28;19924;-77
2023/01/26 08:17:49;;;;;;;;;;;;;;;;;;4996891;28;20320;-77
2023/01/26 08:20:36;;;;;;;;;;;;;;;;;;5002963;28;19918;-77
2023/01/26 08:23:22;;;;;;;;;;;;;;;;;;4989846;28;19924;-76
2023/01/26 08:26:09;;;;;;;;;;;;;;;;;;4997474;28;19924;-75
2023/01/26 08:28:55;;;;;;;;;;;;;;;;;;4996089;28;19914;-76
2023/01/26 08:31:42;;;;;;;;;;;;;;;;;;5005471;28;19920;-76
2023/01/26 08:34:28;;;;;;;;;;;;;;;;;;5008176;28;20381;-76
2023/01/26 08:37:15;;;;;;;;;;;;;;;;;;5008330;28;19927;-76
2023/01/26 08:40:01;;;;;;;;;;;;;;;;;;5016918;28;19921;-76
2023/01/26 08:42:48;;;;;;;;;;;;;;;;;;5014042;28;19910;-76
2023/01/26 08:45:34;;;;;;;;;;;;;;;;;;5001317;28;19936;-76
2023/01/26 08:48:21;;;;;;;;;;;;;;;;;;4997784;28;19928;-76
2023/01/26 08:51:07;;;;;;;;;;;;;;;;;;5005527;28;19921;-76
2023/01/26 08:53:54;;;;;;;;;;;;;;;;;;4995306;28;19936;-75
2023/01/26 08:56:40;;;;;;;;;;;;;;;;;;5018326;28;19933;-77
2023/01/26 08:59:27;;;;;;;;;;;;;;;;;;4998685;28;20377;-76
2023/01/26 09:02:13;;;;;;;;;;;;;;;;;;5003829;28;19917;-77
2023/01/26 09:05:00;;;;;;;;;;;;;;;;;;5014595;28;20293;-77
2023/01/26 09:07:46;;;;;;;;;;;;;;;;;;5000702;28;19913;-76
2023/01/26 09:10:33;;;;;;;;;;;;;;;;;;5011625;28;19913;-77
2023/01/26 09:13:19;;;;;;;;;;;;;;;;;;4999617;28;19920;-77
2023/01/26 09:16:05;;;;;;;;;;;;;;;;;;4999828;28;20344;-77
2023/01/26 09:18:52;;;;;;;;;;;;;;;;;;4993213;28;19927;-77
2023/01/26 09:21:18;;;;;;;;;;;;;;;;;;5000703;28;20373;-78
2023/01/26 09:23:44;;;;;;;;;;;;;;;;;;5000733;28;19932;-78
2023/01/26 09:26:11;;;;;;;;;;;;;;;;;;4997205;28;20377;-77
2023/01/26 09:28:52;;;;;;;;;;;;;;;;;;4988868;28;19988;-78
2023/01/26 09:31:27;;;;;;;;;;;;;;;;;;4939115;28;19921;-78
2023/01/26 09:33:53;;;;;;;;;;;;;;;;;;4985859;28;21494;-78
2023/01/26 09:36:20;;;;;;;;;;;;;;;;;;5012658;28;20407;-76
2023/01/26 09:38:46;;;;;;;;;;;;;;;;;;4984552;28;20220;-76
2023/01/26 09:41:12;;;;;;;;;;;;;;;;;;4993818;28;19929;-77
2023/01/26 09:43:40;;;;;;;;;;;;;;;;;;4993298;28;20382;-77
2023/01/26 09:46:06;;;;;;;;;;;;;;;;;;4988841;28;19972;-76
2023/01/26 09:48:33;;;;;;;;;;;;;;;;;;5003873;28;19924;-77
2023/01/26 09:50:59;;;;;;;;;;;;;;;;;;4965658;28;19929;-77
2023/01/26 09:53:25;;;;;;;;;;;;;;;;;;4997028;28;20440;-76
2023/01/26 09:55:51;;;;;;;;;;;;;;;;;;4989081;28;20479;-76
2023/01/26 09:58:17;;;;;;;;;;;;;;;;;;4988323;28;19995;-77
2023/01/26 10:00:44;;;;;;;;;;;;;;;;;;4984897;28;19976;-76
2023/01/26 10:03:10;;;;;;;;;;;;;;;;;;4980935;28;19923;-76
2023/01/26 10:05:36;;;;;;;;;;;;;;;;;;5001827;28;19956;-75
2023/01/26 10:08:04;;;;;;;;;;;;;;;;;;4995702;28;19962;-76
2023/01/26 10:10:30;;;;;;;;;;;;;;;;;;4985930;28;20698;-76
2023/01/26 10:12:56;;;;;;;;;;;;;;;;;;4977582;28;20490;-75
2023/01/26 10:15:22;;;;;;;;;;;;;;;;;;4978701;28;19918;-78
2023/01/26 10:17:49;;;;;;;;;;;;;;;;;;4978034;28;19932;-75
2023/01/26 10:20:15;;;;;;;;;;;;;;;;;;4983753;28;19968;-76
2023/01/26 10:22:41;;;;;;;;;;;;;;;;;;4980505;28;19918;-76
2023/01/26 10:25:07;;;;;;;;;;;;;;;;;;4979589;28;19944;-76
2023/01/26 10:27:34;;;;;;;;;;;;;;;;;;4974500;28;19922;-76
2023/01/26 10:30:00;;;;;;;;;;;;;;;;;;4977046;28;19925;-76
2023/01/26 10:32:26;;;;;;;;;;;;;;;;;;4998912;28;19961;-76
2023/01/26 10:34:53;;;;;;;;;;;;;;;;;;4991667;28;19921;-75
2023/01/26 10:37:20;;;;;;;;;;;;;;;;;;5000317;28;19929;-76
2023/01/26 10:39:47;;;;;;;;;;;;;;;;;;4989664;28;20399;-76
2023/01/26 10:42:13;;;;;;;;;;;;;;;;;;4987828;28;20024;-76
2023/01/26 10:44:42;;;;;;;;;;;;;;;;;;4977184;28;19944;-77
2023/01/26 10:47:08;;;;;;;;;;;;;;;;;;4999080;28;19925;-77
2023/01/26 10:49:34;;;;;;;;;;;;;;;;;;5001420;28;19949;-77
2023/01/26 10:52:00;;;;;;;;;;;;;;;;;;4981584;28;19921;-77
2023/01/26 10:54:27;;;;;;;;;;;;;;;;;;4970811;28;19925;-78
2023/01/26 10:56:53;;;;;;;;;;;;;;;;;;4977576;28;19945;-77
2023/01/26 10:59:19;;;;;;;;;;;;;;;;;;4976642;28;19917;-77
2023/01/26 11:01:45;;;;;;;;;;;;;;;;;;4980812;28;19925;-77
2023/01/26 11:04:14;;;;;;;;;;;;;;;;;;4974381;28;19960;-77
2023/01/26 11:06:40;;;;;;;;;;;;;;;;;;4977537;28;19941;-77
2023/01/26 11:09:06;;;;;;;;;;;;;;;;;;4990727;28;20000;-77
2023/01/26 11:11:32;;;;;;;;;;;;;;;;;;4969539;28;20627;-77
2023/01/26 11:13:58;;;;;;;;;;;;;;;;;;4975585;28;19968;-77
2023/01/26 11:16:25;;;;;;;;;;;;;;;;;;4980139;28;19936;-77
2023/01/26 11:18:51;;;;;;;;;;;;;;;;;;4971106;28;19932;-77
2023/01/26 11:21:17;;;;;;;;;;;;;;;;;;4978833;28;19972;-77
2023/01/26 11:23:43;;;;;;;;;;;;;;;;;;4967240;28;20714;-77
2023/01/26 11:26:10;;;;;;;;;;;;;;;;;;4959735;28;19926;-77
2023/01/26 11:28:36;;;;;;;;;;;;;;;;;;4971136;28;20284;-76
2023/01/26 11:31:02;;;;;;;;;;;;;;;;;;4977282;28;19979;-76
2023/01/26 11:33:29;;;;;;;;;;;;;;;;;;4981392;28;19913;-76
2023/01/26 11:35:57;;;;;;;;;;;;;;;;;;4978241;28;25491;-76
2023/01/26 11:38:23;;;;;;;;;;;;;;;;;;4962188;28;20300;-77
2023/01/26 11:40:49;;;;;;;;;;;;;;;;;;4972555;28;19926;-76
2023/01/26 11:43:16;;;;;;;;;;;;;;;;;;4976144;28;20475;-76
2023/01/26 11:45:42;;;;;;;;;;;;;;;;;;4970179;28;19917;-76
2023/01/26 11:48:08;;;;;;;;;;;;;;;;;;4977402;28;20366;-77
2023/01/26 11:50:35;;;;;;;;;;;;;;;;;;4971213;28;19930;-77
2023/01/26 11:53:01;;;;;;;;;;;;;;;;;;4984579;28;19924;-77
2023/01/26 11:55:27;;;;;;;;;;;;;;;;;;4978243;28;20008;-77
2023/01/26 11:57:54;;;;;;;;;;;;;;;;;;4986711;28;19921;-76
2023/01/26 12:00:20;;;;;;;;;;;;;;;;;;4986113;28;19918;-78
2023/01/26 12:02:47;;;;;;;;;;;;;;;;;;4974739;28;19945;-77
2023/01/26 12:05:13;;;;;;;;;;;;;;;;;;4978470;28;19945;-77
2023/01/26 12:07:50;;;;;;;;;;;;;;;;;;4979997;28;19945;-77
2023/01/26 12:10:16;;;;;;;;;;;;;;;;;;4971695;28;19922;-77
2023/01/26 12:12:44;;;;;;;;;;;;;;;;;;4989630;28;19922;-77
2023/01/26 12:15:11;;;;;;;;;;;;;;;;;;4990616;28;19917;-78
2023/01/26 12:17:37;;;;;;;;;;;;;;;;;;5010540;28;20020;-75
2023/01/26 12:20:03;;;;;;;;;;;;;;;;;;4989771;28;19917;-78
2023/01/26 12:22:30;;;;;;;;;;;;;;;;;;4989815;28;19922;-77
2023/01/26 12:24:56;;;;;;;;;;;;;;;;;;4996016;28;19932;-77
2023/01/26 12:27:22;;;;;;;;;;;;;;;;;;4981641;28;19991;-77
2023/01/26 12:29:49;;;;;;;;;;;;;;;;;;4982857;28;19921;-77
2023/01/26 12:32:15;;;;;;;;;;;;;;;;;;5005950;28;19922;-77
2023/01/26 12:34:42;;;;;;;;;;;;;;;;;;4980959;28;19926;-78
2023/01/26 12:37:09;;;;;;;;;;;;;;;;;;4981465;28;19998;-77
2023/01/26 12:39:35;;;;;;;;;;;;;;;;;;4990915;28;19922;-77
2023/01/26 12:42:01;;;;;;;;;;;;;;;;;;5001613;28;20332;-78
2023/01/26 12:44:27;;;;;;;;;;;;;;;;;;4982542;28;19925;-77
2023/01/26 12:46:54;;;;;;;;;;;;;;;;;;4989849;28;20381;-78
2023/01/26 12:49:21;;;;;;;;;;;;;;;;;;4990869;28;20435;-77
2023/01/26 12:51:47;;;;;;;;;;;;;;;;;;4991623;28;19977;-77
2023/01/26 12:54:13;;;;;;;;;;;;;;;;;;4990402;28;19968;-78
2023/01/26 12:56:39;;;;;;;;;;;;;;;;;;4978121;28;19984;-77
2023/01/26 12:59:05;;;;;;;;;;;;;;;;;;4983503;28;19980;-76
2023/01/26 13:01:32;;;;;;;;;;;;;;;;;;4991659;28;20483;-77
2023/01/26 13:03:58;;;;;;;;;;;;;;;;;;4990424;28;19917;-78
2023/01/26 13:06:24;;;;;;;;;;;;;;;;;;4986329;28;19922;-77
2023/01/26 13:08:52;;;;;;;;;;;;;;;;;;4981954;28;19976;-77
2023/01/26 13:11:18;;;;;;;;;;;;;;;;;;4987629;28;20392;-77
2023/01/26 13:13:44;;;;;;;;;;;;;;;;;;4993000;28;20274;-77
2023/01/26 13:16:11;;;;;;;;;;;;;;;;;;4992429;28;19913;-77
2023/01/26 13:18:37;;;;;;;;;;;;;;;;;;5004185;28;20300;-77
2023/01/26 13:21:03;;;;;;;;;;;;;;;;;;4977669;28;19913;-77
2023/01/26 13:23:29;;;;;;;;;;;;;;;;;;4999679;28;19921;-77
2023/01/26 13:25:56;;;;;;;;;;;;;;;;;;4997700;28;19917;-77
2023/01/26 13:28:22;;;;;;;;;;;;;;;;;;4964641;28;19917;-76
2023/01/26 13:30:49;;;;;;;;;;;;;;;;;;4978601;28;20476;-76
2023/01/26 13:33:15;;;;;;;;;;;;;;;;;;4959970;28;20360;-75
2023/01/26 13:35:41;;;;;;;;;;;;;;;;;;4978230;28;19922;-76
2023/01/26 13:38:07;;;;;;;;;;;;;;;;;;4995939;28;19922;-77
2023/01/26 13:40:34;;;;;;;;;;;;;;;;;;4991441;28;19918;-77
2023/01/26 13:43:00;;;;;;;;;;;;;;;;;;4979509;28;19929;-77
2023/01/26 13:45:26;;;;;;;;;;;;;;;;;;4981110;28;19918;-77
2023/01/26 13:47:52;;;;;;;;;;;;;;;;;;4984255;28;19965;-77
2023/01/26 13:50:19;;;;;;;;;;;;;;;;;;4963895;28;19934;-76
2023/01/26 13:52:45;;;;;;;;;;;;;;;;;;4977478;28;19930;-77
2023/01/26 13:55:11;;;;;;;;;;;;;;;;;;4974052;28;19918;-77
2023/01/26 13:57:37;;;;;;;;;;;;;;;;;;4986785;28;19921;-77
2023/01/26 14:00:03;;;;;;;;;;;;;;;;;;4981640;28;19914;-77
2023/01/26 14:02:30;;;;;;;;;;;;;;;;;;4971684;28;20369;-77
2023/01/26 14:04:57;;;;;;;;;;;;;;;;;;4977361;28;19917;-77
2023/01/26 14:07:23;;;;;;;;;;;;;;;;;;4970670;28;19917;-77
2023/01/26 14:09:49;;;;;;;;;;;;;;;;;;4961636;28;19922;-76
2023/01/26 14:12:15;;;;;;;;;;;;;;;;;;4974621;28;19918;-77
2023/01/26 14:14:42;;;;;;;;;;;;;;;;;;4969549;28;19917;-78
2023/01/26 14:17:08;;;;;;;;;;;;;;;;;;4989714;28;19919;-77
2023/01/26 14:19:34;;;;;;;;;;;;;;;;;;4983844;28;19930;-77
2023/01/26 14:22:00;;;;;;;;;;;;;;;;;;4976189;28;19917;-78
2023/01/26 14:24:27;;;;;;;;;;;;;;;;;;4979925;28;19972;-77
2023/01/26 14:26:53;;;;;;;;;;;;;;;;;;4976466;28;20506;-77
2023/01/26 14:29:19;;;;;;;;;;;;;;;;;;4978449;28;19949;-77
2023/01/26 14:31:45;;;;;;;;;;;;;;;;;;4981608;28;19924;-76
2023/01/26 14:34:12;;;;;;;;;;;;;;;;;;4993155;28;19921;-77
2023/01/26 14:36:38;;;;;;;;;;;;;;;;;;4996051;28;20357;-77
2023/01/26 14:39:05;;;;;;;;;;;;;;;;;;4971569;28;20317;-77
2023/01/26 14:41:32;;;;;;;;;;;;;;;;;;4988340;28;19968;-77
2023/01/26 14:44:04;;;;;;;;;;;;;;;;;;4984984;28;19964;-77
2023/01/26 14:46:31;;;;;;;;;;;;;;;;;;5008616;28;19929;-77
2023/01/26 14:48:57;;;;;;;;;;;;;;;;;;4979651;28;19952;-76
2023/01/26 14:51:23;;;;;;;;;;;;;;;;;;4967677;28;20453;-77
2023/01/26 14:53:49;;;;;;;;;;;;;;;;;;4977992;28;19969;-75
2023/01/26 14:56:16;;;;;;;;;;;;;;;;;;4988357;28;19924;-77
2023/01/26 14:58:42;;;;;;;;;;;;;;;;;;4960863;28;19999;-76
2023/01/26 15:01:08;;;;;;;;;;;;;;;;;;4988161;28;20358;-77
2023/01/26 15:03:35;;;;;;;;;;;;;;;;;;4991897;28;20393;-76
2023/01/26 15:06:01;;;;;;;;;;;;;;;;;;4984391;28;20377;-77
2023/01/26 15:08:27;;;;;;;;;;;;;;;;;;5000940;28;20308;-77
2023/01/26 15:10:54;;;;;;;;;;;;;;;;;;4981808;28;19987;-77
2023/01/26 15:13:20;;;;;;;;;;;;;;;;;;4982509;28;19946;-77
2023/01/26 15:15:47;;;;;;;;;;;;;;;;;;4970065;28;19914;-77
2023/01/26 15:18:13;;;;;;;;;;;;;;;;;;4985885;28;20369;-77
2023/01/26 15:20:40;;;;;;;;;;;;;;;;;;4986879;28;19922;-76
2023/01/26 15:23:06;;;;;;;;;;;;;;;;;;4992865;28;19917;-77
2023/01/26 15:25:32;;;;;;;;;;;;;;;;;;5007446;28;19924;-77
2023/01/26 15:27:58;;;;;;;;;;;;;;;;;;4996897;28;19921;-78
2023/01/26 15:30:24;;;;;;;;;;;;;;;;;;4993168;28;19928;-76
2023/01/26 15:32:51;;;;;;;;;;;;;;;;;;4986463;28;20535;-77
2023/01/26 15:35:17;;;;;;;;;;;;;;;;;;4983509;28;19924;-76
2023/01/26 15:37:43;;;;;;;;;;;;;;;;;;4965714;28;19961;-76
2023/01/26 15:40:09;;;;;;;;;;;;;;;;;;4979638;28;19914;-77
2023/01/26 15:42:36;;;;;;;;;;;;;;;;;;4986869;28;19917;-77
2023/01/26 15:45:02;;;;;;;;;;;;;;;;;;4988946;28;19921;-77
2023/01/26 15:47:28;;;;;;;;;;;;;;;;;;4984453;28;19933;-77
2023/01/26 15:49:56;;;;;;;;;;;;;;;;;;4978068;28;20413;-77
2023/01/26 15:52:23;;;;;;;;;;;;;;;;;;5002677;28;20436;-77
2023/01/26 15:54:50;;;;;;;;;;;;;;;;;;4971054;28;19918;-77
2023/01/26 15:57:16;;;;;;;;;;;;;;;;;;4981303;28;19922;-77
2023/01/26 15:59:43;;;;;;;;;;;;;;;;;;4972052;28;19980;-76
2023/01/26 16:02:09;;;;;;;;;;;;;;;;;;4982005;28;19929;-77
2023/01/26 16:04:35;;;;;;;;;;;;;;;;;;5002799;28;19922;-76
2023/01/26 16:07:01;;;;;;;;;;;;;;;;;;4983694;28;19918;-77
2023/01/26 16:09:30;;;;;;;;;;;;;;;;;;4988036;28;19926;-77
2023/01/26 16:11:58;;;;;;;;;;;;;;;;;;4997802;28;20401;-78
2023/01/26 16:14:25;;;;;;;;;;;;;;;;;;4977211;28;19921;-77
2023/01/26 16:16:51;;;;;;;;;;;;;;;;;;4986665;28;19918;-77
2023/01/26 16:19:19;;;;;;;;;;;;;;;;;;4997273;28;19948;-76
2023/01/26 16:21:45;;;;;;;;;;;;;;;;;;4992512;28;19918;-77
2023/01/26 16:24:11;;;;;;;;;;;;;;;;;;4970707;28;19957;-77
2023/01/26 16:26:38;;;;;;;;;;;;;;;;;;4965539;28;20312;-76
2023/01/26 16:29:04;;;;;;;;;;;;;;;;;;4972820;28;19929;-78
2023/01/26 16:31:30;;;;;;;;;;;;;;;;;;4984922;28;19926;-77
2023/01/26 16:33:56;;;;;;;;;;;;;;;;;;4950241;28;19926;-77
2023/01/26 16:36:23;;;;;;;;;;;;;;;;;;4973890;28;19968;-77
2023/01/26 16:38:49;;;;;;;;;;;;;;;;;;4977247;28;19933;-77
2023/01/26 16:41:15;;;;;;;;;;;;;;;;;;4974074;28;19924;-77
2023/01/26 16:43:41;;;;;;;;;;;;;;;;;;4957687;28;19937;-77
2023/01/26 16:46:08;;;;;;;;;;;;;;;;;;4990172;28;19957;-78
2023/01/26 16:48:34;;;;;;;;;;;;;;;;;;4971247;28;19965;-78
2023/01/26 16:51:00;;;;;;;;;;;;;;;;;;4983241;28;19929;-78
2023/01/26 16:53:27;;;;;;;;;;;;;;;;;;4968472;28;20296;-77
2023/01/26 16:55:53;;;;;;;;;;;;;;;;;;5001813;28;20442;-77
2023/01/26 16:58:20;;;;;;;;;;;;;;;;;;4983174;28;20389;-77
2023/01/26 17:00:46;;;;;;;;;;;;;;;;;;5007355;28;19926;-78
2023/01/26 17:03:13;;;;;;;;;;;;;;;;;;4982868;28;19918;-77
2023/01/26 17:05:39;;;;;;;;;;;;;;;;;;4989283;28;19917;-78
2023/01/26 17:08:06;;;;;;;;;;;;;;;;;;4998385;28;19918;-78
2023/01/26 17:10:32;;;;;;;;;;;;;;;;;;4999053;28;19949;-78
2023/01/26 17:12:58;;;;;;;;;;;;;;;;;;4972412;28;19914;-78
2023/01/26 17:15:27;;;;;;;;;;;;;;;;;;4969473;28;19957;-77
2023/01/26 17:17:53;;;;;;;;;;;;;;;;;;4999929;28;19936;-76
2023/01/26 17:20:19;;;;;;;;;;;;;;;;;;4974705;28;19959;-77
2023/01/26 17:22:45;;;;;;;;;;;;;;;;;;4983325;28;20009;-76
2023/01/26 17:25:12;;;;;;;;;;;;;;;;;;4980530;28;20664;-76
2023/01/26 17:27:40;;;;;;;;;;;;;;;;;;4999574;28;19922;-76
2023/01/26 17:30:06;;;;;;;;;;;;;;;;;;4982281;28;19926;-77
2023/01/26 17:32:33;;;;;;;;;;;;;;;;;;4996239;28;20293;-76
2023/01/26 17:34:59;;;;;;;;;;;;;;;;;;4984943;28;19925;-78
2023/01/26 17:37:25;;;;;;;;;;;;;;;;;;4978595;28;19918;-76
2023/01/26 17:39:51;;;;;;;;;;;;;;;;;;4984235;28;19921;-77
2023/01/26 17:42:18;;;;;;;;;;;;;;;;;;4985191;28;19925;-76
2023/01/26 17:44:44;;;;;;;;;;;;;;;;;;4977884;28;20516;-76
2023/01/26 17:47:10;;;;;;;;;;;;;;;;;;4982343;28;19924;-79
2023/01/26 17:49:36;;;;;;;;;;;;;;;;;;4986081;28;19917;-79
2023/01/26 17:52:03;;;;;;;;;;;;;;;;;;4972460;28;20049;-78
2023/01/26 17:54:29;;;;;;;;;;;;;;;;;;4981809;28;19996;-78
2023/01/26 17:56:55;;;;;;;;;;;;;;;;;;5002134;28;19922;-78
2023/01/26 17:59:21;;;;;;;;;;;;;;;;;;4980777;28;19933;-78
2023/01/26 18:01:51;;;;;;;;;;;;;;;;;;4995141;28;19972;-78
2023/01/26 18:04:17;;;;;;;;;;;;;;;;;;4994980;28;20336;-78
2023/01/26 18:06:43;;;;;;;;;;;;;;;;;;5004606;28;19933;-78
2023/01/26 18:09:09;;;;;;;;;;;;;;;;;;4978277;28;19918;-78
2023/01/26 18:11:36;;;;;;;;;;;;;;;;;;4984467;28;20004;-77
2023/01/26 18:14:02;;;;;;;;;;;;;;;;;;4979715;28;20290;-77
2023/01/26 18:16:28;;;;;;;;;;;;;;;;;;4990492;28;19980;-76
2023/01/26 18:18:54;;;;;;;;;;;;;;;;;;4961625;28;19932;-76
2023/01/26 18:21:21;;;;;;;;;;;;;;;;;;4982295;28;19940;-77
2023/01/26 18:23:47;;;;;;;;;;;;;;;;;;4988870;28;19921;-78
2023/01/26 18:26:14;;;;;;;;;;;;;;;;;;4979416;28;19991;-77
2023/01/26 18:28:40;;;;;;;;;;;;;;;;;;5008892;28;19921;-78
2023/01/26 18:31:07;;;;;;;;;;;;;;;;;;5005343;28;19940;-78
2023/01/26 18:33:33;;;;;;;;;;;;;;;;;;4983285;28;19925;-78
2023/01/26 18:35:59;;;;;;;;;;;;;;;;;;4985208;28;19921;-78